LFVP

Details ICAO LFVP (FSP)
Name St Pierre
Region France
Timezone Unknown (UTC+0.0)
Plans Departing 44
Arriving 50
Stats Elevation 27 ft / 8 m (AMSL)
Location 46.762662° -56.175529°
Runways 1
Magnetic Variation 18.149° W
Sunrise 2018-05-25 08:01:10 UTC / 2018-05-25 08:01:10 Local
Sunset 2018-05-25 23:25:01 UTC / 2018-05-25 23:25:01 Local
Advertisement - Login to hide

Runways

ID Width Length Bearing (true) Bearing (mag) Surface Threshold Offset Overrun Length
08 150 ft / 46 m 5,902 ft / 1,799 m 58.48° 76.63° Asphalt 0 ft / 0 m 0 ft / 0 m
26 150 ft / 46 m 5,902 ft / 1,799 m 238.50° 256.65° Asphalt 0 ft / 0 m 0 ft / 0 m

Map

Weather


0- 5 10 15 20 25 30 35+ Temperature / ° C

Clouds and Precipitation
Forecast for 2018-05-25 12:00 UTC. Updated 4 hours ago

Ground ~20,000 ft ~40,000 ft Winds

METAR

LFVP 251500Z 17020KT 9999 -RA BKN046 04/01 Q1013 NOSIG

TAF

TAF LFVP 251400Z 2515/2524 17020KT 9999 -RA BKN047 PROB30 TEMPO 2515/2519 3500 BR OVC006 BECMG 2519/2521 18025G40KT 1500 BR PROB40 TEMPO 2519/2524 0600 FG OVC003

Frequencies

Unicom 119.10 MHz CTAF
Approach 119.10 MHz TRML
Tower 119.10 MHz TWR
Warning: Do not use this data for real-world aviation or navigation. No guarantee of current accuracy is given.